sensor_id;sensor_type;location;lat;lon;timestamp;pressure;altitude;pressure_sealevel;temperature;humidity
64521;BME280;50896;46.714;17.322;2023-03-21T00:01:30;100630.88;;;9.30;100.00
64521;BME280;50896;46.714;17.322;2023-03-21T00:03:57;100637.56;;;9.34;100.00
64521;BME280;50896;46.714;17.322;2023-03-21T00:06:24;100633.38;;;9.31;100.00
64521;BME280;50896;46.714;17.322;2023-03-21T00:08:51;100635.22;;;9.31;100.00
64521;BME280;50896;46.714;17.322;2023-03-21T00:11:18;100639.00;;;9.28;100.00
64521;BME280;50896;46.714;17.322;2023-03-21T00:13:44;100635.50;;;9.28;100.00
64521;BME280;50896;46.714;17.322;2023-03-21T00:16:14;100626.84;;;9.26;100.00
64521;BME280;50896;46.714;17.322;2023-03-21T00:19:01;100633.13;;;9.24;100.00
64521;BME280;50896;46.714;17.322;2023-03-21T00:21:29;100634.25;;;9.22;100.00
64521;BME280;50896;46.714;17.322;2023-03-21T00:24:17;100630.94;;;9.20;100.00
64521;BME280;50896;46.714;17.322;2023-03-21T00:26:44;100614.09;;;9.11;100.00
64521;BME280;50896;46.714;17.322;2023-03-21T00:29:11;100630.38;;;9.16;100.00
64521;BME280;50896;46.714;17.322;2023-03-21T00:31:38;100619.25;;;9.13;100.00
64521;BME280;50896;46.714;17.322;2023-03-21T00:34:05;100618.69;;;9.09;100.00
64521;BME280;50896;46.714;17.322;2023-03-21T00:36:32;100619.00;;;9.06;100.00
64521;BME280;50896;46.714;17.322;2023-03-21T00:38:59;100605.38;;;8.91;100.00
64521;BME280;50896;46.714;17.322;2023-03-21T00:41:26;100614.56;;;8.97;100.00
64521;BME280;50896;46.714;17.322;2023-03-21T00:44:09;100620.19;;;8.94;100.00
64521;BME280;50896;46.714;17.322;2023-03-21T00:46:37;100598.03;;;8.85;100.00
64521;BME280;50896;46.714;17.322;2023-03-21T00:49:24;100612.53;;;8.91;100.00
64521;BME280;50896;46.714;17.322;2023-03-21T00:51:51;100611.28;;;8.85;100.00
64521;BME280;50896;46.714;17.322;2023-03-21T00:54:23;100606.97;;;8.84;100.00
64521;BME280;50896;46.714;17.322;2023-03-21T00:56:50;100604.47;;;8.82;100.00
64521;BME280;50896;46.714;17.322;2023-03-21T00:59:17;100601.97;;;8.81;100.00
64521;BME280;50896;46.714;17.322;2023-03-21T01:01:44;100597.94;;;8.77;100.00
64521;BME280;50896;46.714;17.322;2023-03-21T01:04:16;100597.31;;;8.83;100.00
64521;BME280;50896;46.714;17.322;2023-03-21T01:06:43;100584.69;;;8.77;100.00
64521;BME280;50896;46.714;17.322;2023-03-21T01:09:17;100596.81;;;8.79;100.00
64521;BME280;50896;46.714;17.322;2023-03-21T01:11:45;100604.47;;;8.82;100.00
64521;BME280;50896;46.714;17.322;2023-03-21T01:14:13;100599.88;;;8.75;100.00
64521;BME280;50896;46.714;17.322;2023-03-21T01:16:52;100585.97;;;8.63;100.00
64521;BME280;50896;46.714;17.322;2023-03-21T01:19:22;100601.00;;;8.72;100.00
64521;BME280;50896;46.714;17.322;2023-03-21T01:22:06;100591.81;;;8.66;100.00
64521;BME280;50896;46.714;17.322;2023-03-21T01:24:34;100587.66;;;8.64;100.00
64521;BME280;50896;46.714;17.322;2023-03-21T01:27:09;100585.97;;;8.63;100.00
64521;BME280;50896;46.714;17.322;2023-03-21T01:29:36;100582.66;;;8.51;100.00
64521;BME280;50896;46.714;17.322;2023-03-21T01:32:03;100597.44;;;8.53;100.00
64521;BME280;50896;46.714;17.322;2023-03-21T01:34:30;100589.09;;;8.48;100.00
64521;BME280;50896;46.714;17.322;2023-03-21T01:36:57;100564.28;;;8.30;100.00
64521;BME280;50896;46.714;17.322;2023-03-21T01:39:24;100573.31;;;8.37;100.00
64521;BME280;50896;46.714;17.322;2023-03-21T01:41:51;100592.72;;;8.47;100.00
64521;BME280;50896;46.714;17.322;2023-03-21T01:44:24;100577.81;;;8.36;100.00
64521;BME280;50896;46.714;17.322;2023-03-21T01:46:51;100581.44;;;8.35;100.00
64521;BME280;50896;46.714;17.322;2023-03-21T01:50:01;100591.06;;;8.36;100.00
64521;BME280;50896;46.714;17.322;2023-03-21T01:52:44;100586.88;;;8.34;100.00
64521;BME280;50896;46.714;17.322;2023-03-21T01:55:23;100573.22;;;8.19;100.00
64521;BME280;50896;46.714;17.322;2023-03-21T01:57:57;100577.97;;;8.25;100.00
64521;BME280;50896;46.714;17.322;2023-03-21T02:00:41;100587.19;;;8.21;100.00
64521;BME280;50896;46.714;17.322;2023-03-21T02:03:22;100577.03;;;8.16;100.00
64521;BME280;50896;46.714;17.322;2023-03-21T02:09:30;100576.06;;;7.98;100.00
64521;BME280;50896;46.714;17.322;2023-03-21T02:12:00;100585.13;;;7.95;100.00
64521;BME280;50896;46.714;17.322;2023-03-21T02:14:32;100566.19;;;7.80;100.00
64521;BME280;50896;46.714;17.322;2023-03-21T02:25:38;100572.03;;;7.45;100.00
64521;BME280;50896;46.714;17.322;2023-03-21T02:28:25;100563.41;;;7.33;100.00
64521;BME280;50896;46.714;17.322;2023-03-21T02:31:13;100571.63;;;7.30;100.00
64521;BME280;50896;46.714;17.322;2023-03-21T02:39:51;100582.50;;;6.96;100.00
64521;BME280;50896;46.714;17.322;2023-03-21T02:48:14;100547.84;;;6.48;100.00
64521;BME280;50896;46.714;17.322;2023-03-21T02:50:58;100557.50;;;6.59;100.00
64521;BME280;50896;46.714;17.322;2023-03-21T02:53:33;100561.81;;;6.60;100.00
64521;BME280;50896;46.714;17.322;2023-03-21T02:56:06;100569.75;;;6.60;100.00
64521;BME280;50896;46.714;17.322;2023-03-21T02:58:42;100553.59;;;6.54;100.00
64521;BME280;50896;46.714;17.322;2023-03-21T03:01:09;100570.25;;;6.54;100.00
64521;BME280;50896;46.714;17.322;2023-03-21T03:03:41;100564.41;;;6.50;100.00
64521;BME280;50896;46.714;17.322;2023-03-21T03:06:16;100537.38;;;6.37;100.00
64521;BME280;50896;46.714;17.322;2023-03-21T03:08:48;100574.00;;;6.52;100.00
64521;BME280;50896;46.714;17.322;2023-03-21T03:11:37;100572.47;;;6.49;100.00
64521;BME280;50896;46.714;17.322;2023-03-21T03:17:38;100560.06;;;6.40;100.00
64521;BME280;50896;46.714;17.322;2023-03-21T03:23:04;100572.03;;;6.44;100.00
64521;BME280;50896;46.714;17.322;2023-03-21T03:25:50;100561.97;;;6.38;100.00
64521;BME280;50896;46.714;17.322;2023-03-21T03:28:25;100568.50;;;6.33;100.00
64521;BME280;50896;46.714;17.322;2023-03-21T03:30:55;100565.28;;;6.30;100.00
64521;BME280;50896;46.714;17.322;2023-03-21T03:33:43;100565.75;;;6.35;100.00
64521;BME280;50896;46.714;17.322;2023-03-21T03:36:13;100567.66;;;6.33;100.00
64521;BME280;50896;46.714;17.322;2023-03-21T03:39:02;100555.25;;;6.24;100.00
64521;BME280;50896;46.714;17.322;2023-03-21T03:41:32;100562.66;;;6.30;100.00
64521;BME280;50896;46.714;17.322;2023-03-21T03:44:24;100551.75;;;6.23;100.00
64521;BME280;50896;46.714;17.322;2023-03-21T03:49:37;100560.53;;;6.24;100.00
64521;BME280;50896;46.714;17.322;2023-03-21T03:52:14;100569.59;;;6.31;100.00
64521;BME280;50896;46.714;17.322;2023-03-21T03:54:49;100566.69;;;6.34;100.00
64521;BME280;50896;46.714;17.322;2023-03-21T03:57:20;100559.56;;;6.25;100.00
64521;BME280;50896;46.714;17.322;2023-03-21T03:59:47;100575.03;;;6.29;100.00
64521;BME280;50896;46.714;17.322;2023-03-21T04:02:17;100557.31;;;6.20;100.00
64521;BME280;50896;46.714;17.322;2023-03-21T04:04:47;100577.25;;;6.34;100.00
64521;BME280;50896;46.714;17.322;2023-03-21T04:07:20;100577.72;;;6.39;100.00
64521;BME280;50896;46.714;17.322;2023-03-21T04:09:50;100569.53;;;6.42;100.00
64521;BME280;50896;46.714;17.322;2023-03-21T04:12:18;100572.31;;;6.41;100.00
64521;BME280;50896;46.714;17.322;2023-03-21T04:15:06;100566.03;;;6.42;100.00
64521;BME280;50896;46.714;17.322;2023-03-21T04:17:41;100578.69;;;6.38;100.00
64521;BME280;50896;46.714;17.322;2023-03-21T04:20:08;100561.56;;;6.32;100.00
64521;BME280;50896;46.714;17.322;2023-03-21T04:22:42;100573.78;;;6.33;100.00
64521;BME280;50896;46.714;17.322;2023-03-21T04:25:09;100573.44;;;6.48;100.00
64521;BME280;50896;46.714;17.322;2023-03-21T04:27:36;100572.06;;;6.54;100.00
64521;BME280;50896;46.714;17.322;2023-03-21T04:30:23;100580.44;;;6.59;100.00
64521;BME280;50896;46.714;17.322;2023-03-21T04:32:55;100570.56;;;6.61;100.00
64521;BME280;50896;46.714;17.322;2023-03-21T04:35:24;100572.81;;;6.65;100.00
64521;BME280;50896;46.714;17.322;2023-03-21T04:37:51;100579.78;;;6.66;100.00
64521;BME280;50896;46.714;17.322;2023-03-21T04:40:18;100575.34;;;6.67;100.00
64521;BME280;50896;46.714;17.322;2023-03-21T04:42:46;100580.88;;;6.64;100.00
64521;BME280;50896;46.714;17.322;2023-03-21T04:45:15;100573.97;;;6.73;100.00
64521;BME280;50896;46.714;17.322;2023-03-21T04:47:44;100569.69;;;6.81;100.00
64521;BME280;50896;46.714;17.322;2023-03-21T04:50:12;100576.94;;;6.89;100.00
64521;BME280;50896;46.714;17.322;2023-03-21T04:52:39;100572.66;;;6.98;100.00
64521;BME280;50896;46.714;17.322;2023-03-21T04:55:06;100577.41;;;7.04;100.00
64521;BME280;50896;46.714;17.322;2023-03-21T04:57:37;100574.34;;;7.09;100.00
64521;BME280;50896;46.714;17.322;2023-03-21T05:00:06;100566.16;;;7.12;100.00
64521;BME280;50896;46.714;17.322;2023-03-21T05:02:37;100577.56;;;7.12;100.00
64521;BME280;50896;46.714;17.322;2023-03-21T05:05:05;100575.50;;;7.16;100.00
64521;BME280;50896;46.714;17.322;2023-03-21T05:07:32;100588.56;;;7.17;100.00
64521;BME280;50896;46.714;17.322;2023-03-21T05:10:00;100584.53;;;7.23;100.00
64521;BME280;50896;46.714;17.322;2023-03-21T05:12:29;100589.25;;;7.19;100.00
64521;BME280;50896;46.714;17.322;2023-03-21T05:14:56;100592.19;;;7.26;100.00
64521;BME280;50896;46.714;17.322;2023-03-21T05:17:23;100587.06;;;7.34;100.00
64521;BME280;50896;46.714;17.322;2023-03-21T05:19:50;100594.72;;;7.47;100.00
64521;BME280;50896;46.714;17.322;2023-03-21T05:22:19;100593.19;;;7.55;100.00
64521;BME280;50896;46.714;17.322;2023-03-21T05:24:46;100599.91;;;7.68;100.00
64521;BME280;50896;46.714;17.322;2023-03-21T05:27:39;100598.94;;;7.79;100.00
64521;BME280;50896;46.714;17.322;2023-03-21T05:30:15;100591.97;;;7.78;100.00
64521;BME280;50896;46.714;17.322;2023-03-21T05:32:45;100595.47;;;7.89;100.00
64521;BME280;50896;46.714;17.322;2023-03-21T05:35:12;100601.44;;;8.00;100.00
64521;BME280;50896;46.714;17.322;2023-03-21T05:37:39;100590.28;;;7.97;100.00
64521;BME280;50896;46.714;17.322;2023-03-21T05:40:07;100601.44;;;8.00;100.00
64521;BME280;50896;46.714;17.322;2023-03-21T05:42:36;100579.81;;;7.95;100.00
64521;BME280;50896;46.714;17.322;2023-03-21T05:45:12;100603.63;;;8.15;100.00
64521;BME280;50896;46.714;17.322;2023-03-21T05:47:39;100603.06;;;8.21;100.00
64521;BME280;50896;46.714;17.322;2023-03-21T05:50:08;100601.25;;;8.21;100.00
64521;BME280;50896;46.714;17.322;2023-03-21T05:52:35;100601.66;;;8.27;100.00
64521;BME280;50896;46.714;17.322;2023-03-21T05:55:09;100602.22;;;8.30;100.00
64521;BME280;50896;46.714;17.322;2023-03-21T05:57:36;100591.22;;;8.25;100.00
64521;BME280;50896;46.714;17.322;2023-03-21T06:00:19;100603.31;;;8.37;100.00
64521;BME280;50896;46.714;17.322;2023-03-21T06:03:07;100614.75;;;8.38;100.00
64521;BME280;50896;46.714;17.322;2023-03-21T06:06:04;100606.81;;;8.38;100.00
64521;BME280;50896;46.714;17.322;2023-03-21T06:08:37;100612.50;;;8.43;100.00
64521;BME280;50896;46.714;17.322;2023-03-21T06:11:05;100603.19;;;8.49;100.00
64521;BME280;50896;46.714;17.322;2023-03-21T06:13:34;100590.59;;;8.41;100.00
64521;BME280;50896;46.714;17.322;2023-03-21T06:16:01;100612.94;;;8.48;100.00
64521;BME280;50896;46.714;17.322;2023-03-21T06:18:33;100608.34;;;8.50;100.00
64521;BME280;50896;46.714;17.322;2023-03-21T06:21:21;100605.53;;;8.52;100.00
64521;BME280;50896;46.714;17.322;2023-03-21T06:23:50;100597.31;;;8.45;100.00
64521;BME280;50896;46.714;17.322;2023-03-21T06:26:18;100598.72;;;8.49;100.00
64521;BME280;50896;46.714;17.322;2023-03-21T06:28:51;100616.09;;;8.62;100.00
64521;BME280;50896;46.714;17.322;2023-03-21T06:31:19;100619.16;;;8.67;100.00
64521;BME280;50896;46.714;17.322;2023-03-21T06:33:49;100618.28;;;8.76;100.00
64521;BME280;50896;46.714;17.322;2023-03-21T06:36:18;100625.97;;;8.79;100.00
64521;BME280;50896;46.714;17.322;2023-03-21T06:38:45;100622.75;;;8.76;100.00
64521;BME280;50896;46.714;17.322;2023-03-21T06:41:12;100614.63;;;8.87;100.00
64521;BME280;50896;46.714;17.322;2023-03-21T06:43:44;100633.59;;;8.92;100.00
64521;BME280;50896;46.714;17.322;2023-03-21T06:46:11;100629.66;;;8.96;100.00
64521;BME280;50896;46.714;17.322;2023-03-21T06:48:38;100636.88;;;9.04;100.00
64521;BME280;50896;46.714;17.322;2023-03-21T06:51:12;100630.03;;;9.01;100.00
64521;BME280;50896;46.714;17.322;2023-03-21T06:53:47;100631.72;;;9.02;100.00
64521;BME280;50896;46.714;17.322;2023-03-21T06:56:14;100627.47;;;9.10;100.00
64521;BME280;50896;46.714;17.322;2023-03-21T06:58:43;100614.22;;;9.10;100.00
64521;BME280;50896;46.714;17.322;2023-03-21T07:01:20;100630.78;;;9.21;100.00
64521;BME280;50896;46.714;17.322;2023-03-21T07:03:57;100618.66;;;9.19;100.00
64521;BME280;50896;46.714;17.322;2023-03-21T07:06:26;100620.63;;;9.35;100.00
64521;BME280;50896;46.714;17.322;2023-03-21T07:08:54;100623.53;;;9.41;100.00
64521;BME280;50896;46.714;17.322;2023-03-21T07:11:22;100619.91;;;9.43;100.00
64521;BME280;50896;46.714;17.322;2023-03-21T07:13:50;100605.34;;;9.47;100.00
64521;BME280;50896;46.714;17.322;2023-03-21T07:16:18;100630.00;;;9.57;100.00
64521;BME280;50896;46.714;17.322;2023-03-21T07:18:47;100627.59;;;9.64;100.00
64521;BME280;50896;46.714;17.322;2023-03-21T07:21:14;100632.31;;;9.70;100.00
64521;BME280;50896;46.714;17.322;2023-03-21T07:23:41;100640.03;;;9.81;100.00
64521;BME280;50896;46.714;17.322;2023-03-21T07:26:08;100642.22;;;9.86;100.00
64521;BME280;50896;46.714;17.322;2023-03-21T07:28:35;100644.50;;;9.99;100.00
64521;BME280;50896;46.714;17.322;2023-03-21T07:31:04;100637.91;;;10.03;100.00
64521;BME280;50896;46.714;17.322;2023-03-21T07:33:32;100650.50;;;10.01;100.00
64521;BME280;50896;46.714;17.322;2023-03-21T07:36:01;100636.84;;;9.96;100.00
64521;BME280;50896;46.714;17.322;2023-03-21T07:38:28;100630.63;;;10.05;100.00
64521;BME280;50896;46.714;17.322;2023-03-21T07:40:58;100646.81;;;10.20;100.00
64521;BME280;50896;46.714;17.322;2023-03-21T07:43:28;100639.06;;;10.26;100.00
64521;BME280;50896;46.714;17.322;2023-03-21T07:45:58;100633.97;;;10.51;100.00
64521;BME280;50896;46.714;17.322;2023-03-21T07:48:26;100644.03;;;10.66;100.00
64521;BME280;50896;46.714;17.322;2023-03-21T07:50:54;100644.31;;;10.89;100.00
64521;BME280;50896;46.714;17.322;2023-03-21T07:53:21;100646.56;;;11.10;100.00
64521;BME280;50896;46.714;17.322;2023-03-21T07:55:50;100644.31;;;11.23;100.00
64521;BME280;50896;46.714;17.322;2023-03-21T07:58:17;100623.34;;;11.28;100.00
64521;BME280;50896;46.714;17.322;2023-03-21T08:00:43;100636.19;;;11.33;100.00
64521;BME280;50896;46.714;17.322;2023-03-21T08:03:10;100629.03;;;11.34;100.00
64521;BME280;50896;46.714;17.322;2023-03-21T08:05:38;100633.69;;;11.32;100.00
64521;BME280;50896;46.714;17.322;2023-03-21T08:08:06;100627.06;;;11.44;100.00
64521;BME280;50896;46.714;17.322;2023-03-21T08:10:33;100638.56;;;11.53;100.00
64521;BME280;50896;46.714;17.322;2023-03-21T08:13:00;100608.59;;;11.51;100.00
64521;BME280;50896;46.714;17.322;2023-03-21T08:15:27;100630.09;;;11.66;100.00
64521;BME280;50896;46.714;17.322;2023-03-21T08:17:54;100631.09;;;11.73;100.00
64521;BME280;50896;46.714;17.322;2023-03-21T08:20:21;100618.78;;;11.72;100.00
64521;BME280;50896;46.714;17.322;2023-03-21T08:22:49;100631.13;;;11.81;100.00
64521;BME280;50896;46.714;17.322;2023-03-21T08:25:18;100626.97;;;11.87;99.98
64521;BME280;50896;46.714;17.322;2023-03-21T08:27:45;100624.94;;;11.89;99.24
64521;BME280;50896;46.714;17.322;2023-03-21T08:30:15;100599.81;;;11.83;96.26
64521;BME280;50896;46.714;17.322;2023-03-21T08:32:43;100613.13;;;11.91;94.85
64521;BME280;50896;46.714;17.322;2023-03-21T08:35:12;100623.00;;;12.16;87.70
64521;BME280;50896;46.714;17.322;2023-03-21T08:37:39;100628.47;;;12.30;83.28
64521;BME280;50896;46.714;17.322;2023-03-21T08:40:09;100626.97;;;12.36;81.59
64521;BME280;50896;46.714;17.322;2023-03-21T08:42:37;100609.81;;;12.39;79.60
64521;BME280;50896;46.714;17.322;2023-03-21T08:45:05;100630.63;;;12.52;80.29
64521;BME280;50896;46.714;17.322;2023-03-21T08:47:32;100623.13;;;12.47;80.41
64521;BME280;50896;46.714;17.322;2023-03-21T08:49:59;100629.78;;;12.43;81.46
64521;BME280;50896;46.714;17.322;2023-03-21T08:52:26;100626.75;;;12.54;79.22
64521;BME280;50896;46.714;17.322;2023-03-21T08:54:53;100626.75;;;12.54;78.37
64521;BME280;50896;46.714;17.322;2023-03-21T08:57:20;100627.47;;;12.48;78.78
64521;BME280;50896;46.714;17.322;2023-03-21T08:59:47;100630.63;;;12.52;77.07
64521;BME280;50896;46.714;17.322;2023-03-21T09:02:15;100614.78;;;12.50;74.98
64521;BME280;50896;46.714;17.322;2023-03-21T09:04:43;100626.75;;;12.62;70.24
64521;BME280;50896;46.714;17.322;2023-03-21T09:07:11;100623.25;;;12.62;71.02
64521;BME280;50896;46.714;17.322;2023-03-21T09:09:39;100618.94;;;12.61;71.63
64521;BME280;50896;46.714;17.322;2023-03-21T09:12:07;100629.41;;;12.71;71.60
64521;BME280;50896;46.714;17.322;2023-03-21T09:14:34;100623.72;;;12.74;71.01
64521;BME280;50896;46.714;17.322;2023-03-21T09:17:01;100615.53;;;12.75;71.44
64521;BME280;50896;46.714;17.322;2023-03-21T09:19:28;100612.38;;;12.80;70.29
64521;BME280;50896;46.714;17.322;2023-03-21T09:21:55;100615.81;;;12.97;64.88
64521;BME280;50896;46.714;17.322;2023-03-21T09:24:23;100603.66;;;12.86;65.76
64521;BME280;50896;46.714;17.322;2023-03-21T09:26:50;100622.28;;;13.03;64.97
64521;BME280;50896;46.714;17.322;2023-03-21T09:29:17;100611.44;;;13.04;64.43
64521;BME280;50896;46.714;17.322;2023-03-21T09:31:48;100599.78;;;13.05;66.82
64521;BME280;50896;46.714;17.322;2023-03-21T09:34:15;100598.25;;;13.11;69.92
64521;BME280;50896;46.714;17.322;2023-03-21T09:36:42;100609.53;;;13.21;72.72
64521;BME280;50896;46.714;17.322;2023-03-21T09:39:14;100612.88;;;13.23;71.50
64521;BME280;50896;46.714;17.322;2023-03-21T09:41:48;100609.78;;;13.34;71.45
64521;BME280;50896;46.714;17.322;2023-03-21T09:44:30;100600.63;;;13.37;69.18
64521;BME280;50896;46.714;17.322;2023-03-21T09:47:24;100594.00;;;13.56;60.38
64521;BME280;50896;46.714;17.322;2023-03-21T09:49:58;100611.50;;;13.59;63.99
64521;BME280;50896;46.714;17.322;2023-03-21T09:52:52;100600.06;;;13.50;61.82
64521;BME280;50896;46.714;17.322;2023-03-21T09:55:24;100586.06;;;13.48;60.37
64521;BME280;50896;46.714;17.322;2023-03-21T09:58:06;100599.50;;;13.55;59.90
64521;BME280;50896;46.714;17.322;2023-03-21T10:00:44;100600.69;;;13.52;57.87
64521;BME280;50896;46.714;17.322;2023-03-21T10:03:22;100595.88;;;13.47;58.74
64521;BME280;50896;46.714;17.322;2023-03-21T10:05:51;100590.63;;;13.62;56.80
64521;BME280;50896;46.714;17.322;2023-03-21T10:08:27;100601.44;;;13.69;58.33
64521;BME280;50896;46.714;17.322;2023-03-21T10:10:59;100600.28;;;13.87;56.86
64521;BME280;50896;46.714;17.322;2023-03-21T10:13:49;100597.97;;;13.83;58.90
64521;BME280;50896;46.714;17.322;2023-03-21T10:16:29;100607.47;;;13.86;58.78
64521;BME280;50896;46.714;17.322;2023-03-21T10:19:06;100592.16;;;13.80;59.23
64521;BME280;50896;46.714;17.322;2023-03-21T10:21:38;100588.97;;;13.84;57.99
64521;BME280;50896;46.714;17.322;2023-03-21T10:24:27;100591.09;;;13.89;60.57
64521;BME280;50896;46.714;17.322;2023-03-21T10:26:55;100592.03;;;13.96;60.84
64521;BME280;50896;46.714;17.322;2023-03-21T10:29:26;100587.78;;;14.02;57.41
64521;BME280;50896;46.714;17.322;2023-03-21T10:31:55;100575.63;;;13.99;59.84
64521;BME280;50896;46.714;17.322;2023-03-21T10:36:54;100565.97;;;13.98;59.85
64521;BME280;50896;46.714;17.322;2023-03-21T10:41:57;100563.41;;;14.05;57.99
64521;BME280;50896;46.714;17.322;2023-03-21T10:44:32;100565.63;;;14.16;61.46
64521;BME280;50896;46.714;17.322;2023-03-21T10:47:06;100572.00;;;14.30;59.51
64521;BME280;50896;46.714;17.322;2023-03-21T10:49:35;100558.63;;;14.45;55.72
64521;BME280;50896;46.714;17.322;2023-03-21T10:52:26;100565.25;;;14.49;53.07
64521;BME280;50896;46.714;17.322;2023-03-21T10:55:30;100570.38;;;14.74;52.22
64521;BME280;50896;46.714;17.322;2023-03-21T10:58:02;100556.69;;;14.84;53.30
64521;BME280;50896;46.714;17.322;2023-03-21T11:00:35;100559.72;;;14.96;53.32
64521;BME280;50896;46.714;17.322;2023-03-21T11:03:03;100561.94;;;15.07;53.40
64521;BME280;50896;46.714;17.322;2023-03-21T11:05:36;100557.03;;;14.96;53.61
64521;BME280;50896;46.714;17.322;2023-03-21T11:08:14;100559.38;;;14.99;51.50
64521;BME280;50896;46.714;17.322;2023-03-21T11:11:03;100551.53;;;14.97;51.69
64521;BME280;50896;46.714;17.322;2023-03-21T11:13:42;100537.19;;;14.90;51.06
64521;BME280;50896;46.714;17.322;2023-03-21T11:16:10;100557.59;;;14.91;51.50
64521;BME280;50896;46.714;17.322;2023-03-21T11:18:42;100540.25;;;14.87;52.00
64521;BME280;50896;46.714;17.322;2023-03-21T11:21:12;100541.66;;;14.83;54.20
64521;BME280;50896;46.714;17.322;2023-03-21T11:23:45;100549.38;;;15.08;55.38
64521;BME280;50896;46.714;17.322;2023-03-21T11:26:29;100519.72;;;15.09;53.61
64521;BME280;50896;46.714;17.322;2023-03-21T11:28:57;100523.97;;;14.82;54.06
64521;BME280;50896;46.714;17.322;2023-03-21T11:31:40;100533.69;;;15.04;52.48
64521;BME280;50896;46.714;17.322;2023-03-21T11:34:08;100521.59;;;15.30;52.02
64521;BME280;50896;46.714;17.322;2023-03-21T11:36:36;100514.06;;;15.41;52.66
64521;BME280;50896;46.714;17.322;2023-03-21T11:41:39;100514.31;;;15.67;50.42
64521;BME280;50896;46.714;17.322;2023-03-21T11:44:24;100511.38;;;15.62;49.05
64521;BME280;50896;46.714;17.322;2023-03-21T11:46:52;100511.44;;;15.47;48.43
64521;BME280;50896;46.714;17.322;2023-03-21T11:49:21;100493.66;;;16.18;47.14
64521;BME280;50896;46.714;17.322;2023-03-21T11:57:12;100483.56;;;17.77;42.50
64521;BME280;50896;46.714;17.322;2023-03-21T12:08:18;100477.53;;;15.54;47.48
64521;BME280;50896;46.714;17.322;2023-03-21T12:10:57;100482.75;;;15.41;47.71
64521;BME280;50896;46.714;17.322;2023-03-21T12:19:07;100472.34;;;14.88;49.58
64521;BME280;50896;46.714;17.322;2023-03-21T12:22:05;100482.44;;;14.71;51.05
64521;BME280;50896;46.714;17.322;2023-03-21T12:24:55;100467.19;;;14.57;52.02
64521;BME280;50896;46.714;17.322;2023-03-21T12:31:18;100467.50;;;14.47;53.04
64521;BME280;50896;46.714;17.322;2023-03-21T12:34:34;100463.19;;;14.46;51.51
64521;BME280;50896;46.714;17.322;2023-03-21T12:37:18;100452.78;;;14.36;52.17
64521;BME280;50896;46.714;17.322;2023-03-21T12:39:48;100450.38;;;14.26;51.48
64521;BME280;50896;46.714;17.322;2023-03-21T12:43:15;100442.97;;;14.28;51.43
64521;BME280;50896;46.714;17.322;2023-03-21T12:45:24;100436.34;;;14.39;51.09
64521;BME280;50896;46.714;17.322;2023-03-21T12:50:41;100427.06;;;14.72;51.49
64521;BME280;50896;46.714;17.322;2023-03-21T12:56:13;100424.66;;;14.98;50.22
64521;BME280;50896;46.714;17.322;2023-03-21T12:58:52;100424.41;;;15.15;50.08
64521;BME280;50896;46.714;17.322;2023-03-21T13:01:21;100407.91;;;15.11;48.84
64521;BME280;50896;46.714;17.322;2023-03-21T13:04:05;100391.59;;;14.84;49.49
64521;BME280;50896;46.714;17.322;2023-03-21T13:06:34;100413.38;;;14.81;49.79
64521;BME280;50896;46.714;17.322;2023-03-21T13:09:13;100405.47;;;14.73;50.34
64521;BME280;50896;46.714;17.322;2023-03-21T13:11:46;100406.66;;;14.70;49.88
64521;BME280;50896;46.714;17.322;2023-03-21T13:14:25;100396.19;;;14.54;49.95
64521;BME280;50896;46.714;17.322;2023-03-21T13:17:17;100402.75;;;14.51;50.30
64521;BME280;50896;46.714;17.322;2023-03-21T13:22:57;100393.00;;;14.29;51.13
64521;BME280;50896;46.714;17.322;2023-03-21T13:25:29;100392.19;;;14.28;51.45
64521;BME280;50896;46.714;17.322;2023-03-21T13:28:03;100402.59;;;14.38;51.21
64521;BME280;50896;46.714;17.322;2023-03-21T13:30:31;100396.41;;;14.38;51.13
64521;BME280;50896;46.714;17.322;2023-03-21T13:33:06;100390.88;;;14.39;52.06
64521;BME280;50896;46.714;17.322;2023-03-21T13:35:39;100394.47;;;14.31;53.05
64521;BME280;50896;46.714;17.322;2023-03-21T13:38:10;100385.91;;;14.36;52.41
64521;BME280;50896;46.714;17.322;2023-03-21T13:40:44;100382.34;;;14.50;52.47
64521;BME280;50896;46.714;17.322;2023-03-21T13:43:41;100384.44;;;14.70;50.94
64521;BME280;50896;46.714;17.322;2023-03-21T13:51:50;100390.38;;;14.87;50.27
64521;BME280;50896;46.714;17.322;2023-03-21T13:54:21;100374.31;;;15.09;48.40
64521;BME280;50896;46.714;17.322;2023-03-21T13:57:03;100373.06;;;15.04;48.32
64521;BME280;50896;46.714;17.322;2023-03-21T14:04:38;100362.41;;;15.11;48.64
64521;BME280;50896;46.714;17.322;2023-03-21T14:07:26;100354.31;;;15.04;48.37
64521;BME280;50896;46.714;17.322;2023-03-21T14:09:58;100355.06;;;14.98;48.64
64521;BME280;50896;46.714;17.322;2023-03-21T14:12:29;100344.31;;;14.92;49.25
64521;BME280;50896;46.714;17.322;2023-03-21T14:15:03;100342.66;;;14.91;47.86
64521;BME280;50896;46.714;17.322;2023-03-21T14:17:58;100353.22;;;14.77;48.50
64521;BME280;50896;46.714;17.322;2023-03-21T14:20:30;100334.44;;;14.70;48.39
64521;BME280;50896;46.714;17.322;2023-03-21T14:22:58;100349.34;;;14.80;48.08
64521;BME280;50896;46.714;17.322;2023-03-21T14:25:32;100329.19;;;14.62;48.42
64521;BME280;50896;46.714;17.322;2023-03-21T14:28:19;100336.09;;;14.72;50.96
64521;BME280;50896;46.714;17.322;2023-03-21T14:30:51;100340.66;;;14.56;50.86
64521;BME280;50896;46.714;17.322;2023-03-21T14:33:26;100335.03;;;14.51;50.71